createdAt,value
2019-03-23T00:00:41.232Z,101790.75
2019-03-23T00:03:08.714Z,101785.97
2019-03-23T00:05:36.032Z,101779.31
2019-03-23T00:08:03.459Z,101779.81
2019-03-23T00:10:31.875Z,101779.81
2019-03-23T00:12:59.350Z,101782.08
2019-03-23T00:15:26.676Z,101782.08
2019-03-23T00:17:53.989Z,101782.08
2019-03-23T00:20:21.202Z,101781.47
2019-03-23T00:22:48.422Z,101783.59
2019-03-23T00:25:15.711Z,101780.09
2019-03-23T00:27:42.926Z,101781.84
2019-03-23T00:30:10.462Z,101783.75
2019-03-23T00:32:37.775Z,101787.48
2019-03-23T00:35:06.174Z,101783.33
2019-03-23T00:37:33.553Z,101784.98
2019-03-23T00:40:00.872Z,101780.33
2019-03-23T00:42:28.185Z,101774.67
2019-03-23T00:44:55.412Z,101777.05
2019-03-23T00:47:22.626Z,101777.05
2019-03-23T00:49:50.121Z,101770.69
2019-03-23T00:52:17.340Z,101776.96
2019-03-23T00:54:44.564Z,101785.09
2019-03-23T00:57:11.875Z,101785.09
2019-03-23T00:59:39.182Z,101793.59
2019-03-23T01:02:06.389Z,101790.36
2019-03-23T01:04:33.593Z,101804.53
2019-03-23T01:07:00.929Z,101796.86
2019-03-23T01:09:28.137Z,101800.20
2019-03-23T01:11:55.502Z,101798.45
2019-03-23T01:14:22.937Z,101807.05
2019-03-23T01:16:50.463Z,101800.79
2019-03-23T01:19:17.668Z,101784.35
2019-03-23T01:21:45.002Z,101785.25
2019-03-23T01:24:12.196Z,101786.51
2019-03-23T01:26:39.397Z,101781.55
2019-03-23T01:29:06.705Z,101781.55
2019-03-23T01:31:35.101Z,101786.89
2019-03-23T01:34:02.438Z,101783.51
2019-03-23T01:36:29.624Z,101777.27
2019-03-23T01:38:56.828Z,101776.48
2019-03-23T01:41:24.736Z,101775.75
2019-03-23T01:43:51.963Z,101775.75
2019-03-23T01:46:19.289Z,101777.71
2019-03-23T01:48:46.518Z,101779.34
2019-03-23T01:51:13.724Z,101778.39
2019-03-23T01:53:40.938Z,101782.94
2019-03-23T01:56:08.151Z,101785.42
2019-03-23T01:58:35.455Z,101793.05
2019-03-23T02:01:02.766Z,101787.18
2019-03-23T02:03:30.087Z,101791.40
2019-03-23T02:05:57.387Z,101793.95
2019-03-23T02:08:24.589Z,101800.79
2019-03-23T02:10:51.897Z,101787.20
2019-03-23T02:13:19.267Z,101792.08
2019-03-23T02:15:46.451Z,101795.23
2019-03-23T02:18:13.750Z,101800.67
2019-03-23T02:20:40.965Z,101807.23
2019-03-23T02:23:08.165Z,101797.38
2019-03-23T02:25:35.474Z,101800.38
2019-03-23T02:28:02.869Z,101792.63
2019-03-23T02:30:30.129Z,101800.04
2019-03-23T02:32:57.339Z,101804.62
2019-03-23T02:35:24.627Z,101810.85
2019-03-23T02:37:51.843Z,101812.94
2019-03-23T02:40:19.297Z,101808.74
2019-03-23T02:42:46.493Z,101816.69
2019-03-23T02:45:14.004Z,101814.06
2019-03-23T02:47:41.186Z,101817.69
2019-03-23T02:50:25.154Z,101822.48
2019-03-23T02:52:46.635Z,101816.91
2019-03-23T02:55:14.206Z,101825.83
2019-03-23T02:57:41.429Z,101839.63
2019-03-23T03:00:09.263Z,101835.95
2019-03-23T03:02:36.665Z,101834.88
2019-03-23T03:05:04.744Z,101836.13
2019-03-23T03:07:42.087Z,101841.67
2019-03-23T03:10:01.160Z,101840.88
2019-03-23T03:12:28.352Z,101840.20
2019-03-23T03:14:55.595Z,101844.86
2019-03-23T03:17:22.778Z,101843.89
2019-03-23T03:19:49.980Z,101835.08
2019-03-23T03:22:17.539Z,101847.27
2019-03-23T03:24:44.842Z,101852.53
2019-03-23T03:27:12.037Z,101846.91
2019-03-23T03:29:39.286Z,101848.08
2019-03-23T03:32:06.483Z,101849.40
2019-03-23T03:34:33.694Z,101832.88
2019-03-23T03:37:01.031Z,101841.09
2019-03-23T03:39:28.227Z,101832.21
2019-03-23T03:41:55.538Z,101844.41
2019-03-23T03:44:22.781Z,101824.51
2019-03-23T03:46:50.105Z,101839.42
2019-03-23T03:49:17.291Z,101833.46
2019-03-23T03:51:44.518Z,101822.96
2019-03-23T03:54:11.800Z,101828.91
2019-03-23T03:56:39.109Z,101829.44
2019-03-23T03:59:06.501Z,101829.64
2019-03-23T04:01:33.682Z,101830.45
2019-03-23T04:04:00.884Z,101816.58
2019-03-23T04:06:28.676Z,101810.41
2019-03-23T04:08:55.872Z,101814.59
2019-03-23T04:11:23.083Z,101812.74
2019-03-23T04:13:50.432Z,101815.44
2019-03-23T04:16:17.703Z,101816.24
2019-03-23T04:18:45.069Z,101813.11
2019-03-23T04:21:12.286Z,101817.59
2019-03-23T04:23:39.719Z,101818.84
2019-03-23T04:26:07.081Z,101825.07
2019-03-23T04:28:34.414Z,101834.47
2019-03-23T04:31:01.709Z,101838.34
2019-03-23T04:33:29.018Z,101837.16
2019-03-23T04:35:56.227Z,101846.47
2019-03-23T04:38:23.477Z,101844.20
2019-03-23T04:40:50.645Z,101858.59
2019-03-23T04:43:17.893Z,101865.56
2019-03-23T04:45:45.086Z,101869.08
2019-03-23T04:48:12.397Z,101875.11
2019-03-23T04:50:39.724Z,101876.66
2019-03-23T04:53:06.914Z,101872.61
2019-03-23T04:55:34.274Z,101890.06
2019-03-23T04:58:01.565Z,101881.64
2019-03-23T05:00:28.765Z,101888.66
2019-03-23T05:02:56.096Z,101895.66
2019-03-23T05:05:23.384Z,101892.62
2019-03-23T05:07:50.580Z,101901.73
2019-03-23T05:10:17.986Z,101900.55
2019-03-23T05:12:45.165Z,101895.25
2019-03-23T05:15:12.577Z,101886.09
2019-03-23T05:17:39.798Z,101884.27
2019-03-23T05:20:07.114Z,101886.94
2019-03-23T05:22:34.452Z,101881.11
2019-03-23T05:25:01.781Z,101890.23
2019-03-23T05:27:28.981Z,101891.02
2019-03-23T05:29:56.221Z,101902.03
2019-03-23T05:32:23.405Z,101905.10
2019-03-23T05:34:50.610Z,101911.44
2019-03-23T05:37:18.823Z,101924.52
2019-03-23T05:39:46.023Z,101922.42
2019-03-23T05:42:13.247Z,101924.21
2019-03-23T05:44:40.482Z,101930.22
2019-03-23T05:47:07.688Z,101925.16
2019-03-23T05:49:34.889Z,101925.77
2019-03-23T05:52:02.186Z,101927.02
2019-03-23T05:54:29.710Z,101932.34
2019-03-23T05:56:57.014Z,101925.53
2019-03-23T05:59:24.301Z,101924.72
2019-03-23T06:01:51.595Z,101927.41
2019-03-23T06:04:18.785Z,101932.50
2019-03-23T06:06:45.988Z,101936.98
2019-03-23T06:09:13.290Z,101937.70
2019-03-23T06:11:40.489Z,101931.59
2019-03-23T06:14:07.683Z,101936.45
2019-03-23T06:16:34.871Z,101940.06
2019-03-23T06:19:02.106Z,101945.66
2019-03-23T06:21:29.282Z,101947.10
2019-03-23T06:23:56.477Z,101948.22
2019-03-23T06:26:23.712Z,101959.52
2019-03-23T06:28:50.905Z,101947.23
2019-03-23T06:31:18.194Z,101954.66
2019-03-23T06:33:45.417Z,101961.20
2019-03-23T06:36:12.718Z,101951.89
2019-03-23T06:38:39.907Z,101963.42
2019-03-23T06:41:07.145Z,101962.92
2019-03-23T06:43:34.385Z,101969.30
2019-03-23T06:46:01.602Z,101969.46
2019-03-23T06:48:28.837Z,101976.51
2019-03-23T06:50:56.024Z,101979.00
2019-03-23T06:53:23.248Z,101976.78
2019-03-23T06:55:50.460Z,101970.47
2019-03-23T06:58:17.761Z,101966.30
2019-03-23T07:00:44.984Z,101964.50
2019-03-23T07:03:12.198Z,101962.74
2019-03-23T07:05:39.393Z,101965.67
2019-03-23T07:08:06.590Z,101976.16
2019-03-23T07:10:33.897Z,101973.66
2019-03-23T07:13:01.098Z,101968.33
2019-03-23T07:15:28.286Z,101970.52
2019-03-23T07:17:55.514Z,101980.51
2019-03-23T07:20:22.807Z,101978.02
2019-03-23T07:22:50.110Z,101986.55
2019-03-23T07:25:17.418Z,101987.55
2019-03-23T07:27:44.746Z,101994.91
2019-03-23T07:30:12.921Z,101992.70
2019-03-23T07:32:40.207Z,101990.67
2019-03-23T07:35:07.771Z,102000.81
2019-03-23T07:37:34.971Z,102004.91
2019-03-23T07:40:02.392Z,102003.44
2019-03-23T07:42:29.579Z,101996.69
2019-03-23T07:44:58.290Z,101999.78
2019-03-23T07:47:25.577Z,101991.84
2019-03-23T07:49:52.767Z,101998.53
2019-03-23T07:52:19.969Z,102000.05
2019-03-23T07:54:47.171Z,102006.53
2019-03-23T07:57:14.590Z,102007.55
2019-03-23T07:59:41.980Z,102017.76
2019-03-23T08:02:09.155Z,102011.83
2019-03-23T08:04:36.370Z,102016.59
2019-03-23T08:07:03.863Z,102018.27
2019-03-23T08:09:37.674Z,102021.06
2019-03-23T08:12:00.313Z,102024.89
2019-03-23T08:14:27.544Z,102026.44
2019-03-23T08:16:55.122Z,102030.56
2019-03-23T08:19:22.314Z,102021.14
2019-03-23T08:21:49.498Z,102023.01
2019-03-23T08:24:17.025Z,102023.41
2019-03-23T08:26:44.310Z,102023.49
2019-03-23T08:29:11.904Z,102020.46
2019-03-23T08:31:39.241Z,102027.22
2019-03-23T08:34:06.613Z,102024.72
2019-03-23T08:36:33.826Z,102024.76
2019-03-23T08:39:01.204Z,102026.09
2019-03-23T08:41:30.655Z,102020.14
2019-03-23T08:43:57.859Z,102025.51
2019-03-23T08:46:25.214Z,102025.97
2019-03-23T08:48:52.418Z,102037.13
2019-03-23T08:51:19.830Z,102039.72
2019-03-23T08:53:47.398Z,102051.09
2019-03-23T08:56:14.732Z,102052.61
2019-03-23T08:58:41.089Z,102062.34
2019-03-23T09:01:08.409Z,102057.02
2019-03-23T09:03:36.086Z,102058.09
2019-03-23T09:06:03.418Z,102060.16
2019-03-23T09:08:30.584Z,102054.80
2019-03-23T09:10:57.823Z,102052.64
2019-03-23T09:13:25.226Z,102050.59
2019-03-23T09:15:52.749Z,102056.64
2019-03-23T09:18:20.316Z,102057.15
2019-03-23T09:20:47.520Z,102056.84
2019-03-23T09:23:15.170Z,102059.81
2019-03-23T09:25:45.583Z,102058.75
2019-03-23T09:28:14.074Z,102058.97
2019-03-23T09:30:41.396Z,102056.83
2019-03-23T09:33:08.732Z,102058.80
2019-03-23T09:35:39.493Z,102058.70
2019-03-23T09:38:05.419Z,102070.91
2019-03-23T09:40:32.922Z,102078.50
2019-03-23T09:43:00.213Z,102079.84
2019-03-23T09:45:27.942Z,102072.17
2019-03-23T09:47:55.261Z,102061.74
2019-03-23T09:50:22.468Z,102050.30
2019-03-23T09:52:50.029Z,102055.70
2019-03-23T09:55:17.243Z,102064.78
2019-03-23T09:57:45.444Z,102076.45
2019-03-23T10:00:41.248Z,102079.22
2019-03-23T10:03:08.785Z,102080.31
2019-03-23T10:05:36.030Z,102091.83
2019-03-23T10:08:03.235Z,102095.30
2019-03-23T10:10:30.442Z,102095.88
2019-03-23T10:12:57.786Z,102098.41
2019-03-23T10:15:25.116Z,102105.17
2019-03-23T10:17:52.322Z,102108.70
2019-03-23T10:20:19.570Z,102102.62
2019-03-23T10:22:46.777Z,102100.31
2019-03-23T10:25:14.187Z,102096.84
2019-03-23T10:27:41.670Z,102102.23
2019-03-23T10:30:09.109Z,102105.55
2019-03-23T10:32:36.517Z,102105.83
2019-03-23T10:35:06.246Z,102097.90
2019-03-23T10:37:33.563Z,102098.89
2019-03-23T10:40:00.785Z,102100.59
2019-03-23T10:42:28.005Z,102108.61
2019-03-23T10:44:55.222Z,102105.91
2019-03-23T10:47:22.564Z,102109.45
2019-03-23T10:49:49.762Z,102108.42
2019-03-23T10:52:16.958Z,102105.13
2019-03-23T10:54:44.186Z,102111.02
2019-03-23T10:57:11.508Z,102114.08
2019-03-23T10:59:38.817Z,102104.95
2019-03-23T11:02:06.120Z,102103.27
2019-03-23T11:04:33.437Z,102100.84
2019-03-23T11:07:00.638Z,102112.22
2019-03-23T11:09:28.946Z,102121.89
2019-03-23T11:11:56.178Z,102124.90
2019-03-23T11:14:23.478Z,102132.58
2019-03-23T11:16:50.745Z,102136.45
2019-03-23T11:19:17.969Z,102137.91
2019-03-23T11:21:45.170Z,102135.46
2019-03-23T11:24:12.475Z,102136.62
2019-03-23T11:26:39.781Z,102140.47
2019-03-23T11:29:08.415Z,102142.05
2019-03-23T11:31:35.803Z,102139.41
2019-03-23T11:34:03.292Z,102155.45
2019-03-23T11:36:30.514Z,102155.45
2019-03-23T11:38:57.839Z,102153.83
2019-03-23T11:41:25.052Z,102160.00
2019-03-23T11:43:52.267Z,102156.34
2019-03-23T11:46:19.481Z,102158.84
2019-03-23T11:48:47.496Z,102158.16
2019-03-23T11:51:14.718Z,102151.58
2019-03-23T11:53:41.945Z,102159.31
2019-03-23T11:56:09.174Z,102160.38
2019-03-23T11:58:36.383Z,102153.48
2019-03-23T12:01:03.641Z,102156.42
2019-03-23T12:03:30.858Z,102154.36
2019-03-23T12:05:58.062Z,102150.35
2019-03-23T12:08:25.276Z,102152.38
2019-03-23T12:11:02.510Z,102152.48
2019-03-23T12:13:21.906Z,102152.73
2019-03-23T12:15:49.138Z,102155.43
2019-03-23T12:18:16.387Z,102159.75
2019-03-23T12:20:43.722Z,102166.61
2019-03-23T12:23:10.927Z,102174.94
2019-03-23T12:25:38.259Z,102172.81
2019-03-23T12:28:05.479Z,102183.21
2019-03-23T12:30:32.801Z,102181.08
2019-03-23T12:33:00.186Z,102185.80
2019-03-23T12:35:27.510Z,102181.01
2019-03-23T12:37:54.937Z,102194.76
2019-03-23T12:40:22.150Z,102195.63
2019-03-23T12:42:49.622Z,102195.53
2019-03-23T12:45:17.043Z,102198.99
2019-03-23T12:47:44.263Z,102205.31
2019-03-23T12:50:12.304Z,102205.31
2019-03-23T12:52:39.622Z,102209.61
2019-03-23T12:55:06.970Z,102210.47
2019-03-23T12:57:35.420Z,102204.81
2019-03-23T13:00:03.520Z,102204.81
2019-03-23T13:02:30.750Z,102218.27
2019-03-23T13:04:57.991Z,102204.02
2019-03-23T13:07:25.256Z,102218.48
2019-03-23T13:09:52.488Z,102224.09
2019-03-23T13:12:19.716Z,102224.09
2019-03-23T13:14:46.948Z,102217.63
2019-03-23T13:17:14.270Z,102217.63
2019-03-23T13:19:41.634Z,102225.58
2019-03-23T13:22:08.841Z,102225.58
2019-03-23T13:24:37.123Z,102232.38
2019-03-23T13:27:04.459Z,102225.67
2019-03-23T13:29:31.673Z,102225.67
2019-03-23T13:31:58.898Z,102225.29
2019-03-23T13:34:26.161Z,102226.73
2019-03-23T13:36:53.374Z,102227.48
2019-03-23T13:39:20.726Z,102229.28
2019-03-23T13:41:49.010Z,102225.85
2019-03-23T13:44:17.794Z,102229.00
2019-03-23T13:46:45.115Z,102227.86
2019-03-23T13:49:12.745Z,102223.63
2019-03-23T13:51:40.918Z,102234.66
2019-03-23T13:54:08.207Z,102230.63
2019-03-23T13:56:35.443Z,102235.23
2019-03-23T13:59:02.919Z,102232.34
2019-03-23T14:01:30.281Z,102236.81
2019-03-23T14:03:57.482Z,102234.77
2019-03-23T14:06:24.717Z,102236.02
2019-03-23T14:08:52.272Z,102234.13
2019-03-23T14:11:19.604Z,102241.57
2019-03-23T14:13:46.906Z,102247.81
2019-03-23T14:16:14.386Z,102225.46
2019-03-23T14:18:41.685Z,102233.82
2019-03-23T14:21:08.911Z,102242.65
2019-03-23T14:23:36.128Z,102232.20
2019-03-23T14:26:03.591Z,102240.37
2019-03-23T14:28:30.978Z,102233.36
2019-03-23T14:30:58.512Z,102244.56
2019-03-23T14:33:25.761Z,102246.83
2019-03-23T14:35:53.021Z,102257.82
2019-03-23T14:38:20.312Z,102238.49
2019-03-23T14:40:47.540Z,102251.17
2019-03-23T14:43:14.765Z,102237.03
2019-03-23T14:45:42.014Z,102252.59
2019-03-23T14:48:09.216Z,102247.76
2019-03-23T14:50:36.526Z,102245.45
2019-03-23T14:53:03.869Z,102244.63
2019-03-23T14:55:31.078Z,102253.94
2019-03-23T14:57:58.321Z,102257.91
2019-03-23T15:00:29.948Z,102254.02
2019-03-23T15:02:57.180Z,102258.60
2019-03-23T15:05:24.380Z,102247.95
2019-03-23T15:07:51.707Z,102260.08
2019-03-23T15:10:18.955Z,102264.67
2019-03-23T15:12:46.275Z,102267.69
2019-03-23T15:15:13.654Z,102265.02
2019-03-23T15:17:48.383Z,102258.02
2019-03-23T15:20:10.322Z,102256.36
2019-03-23T15:22:45.220Z,102266.95
2019-03-23T15:25:12.543Z,102264.34
2019-03-23T15:27:39.776Z,102261.56
2019-03-23T15:30:07.655Z,102269.78
2019-03-23T15:32:34.999Z,102264.59
2019-03-23T15:35:02.418Z,102199.45
2019-03-23T15:37:29.768Z,102266.68
2019-03-23T15:39:56.960Z,102270.48
2019-03-23T15:42:24.908Z,102265.30
2019-03-23T15:44:52.465Z,102275.53
2019-03-23T15:47:19.712Z,102279.69
2019-03-23T15:49:46.884Z,102274.25
2019-03-23T15:52:14.820Z,102284.58
2019-03-23T15:54:42.030Z,102285.04
2019-03-23T20:43:30.577Z,102421.95
2019-03-23T20:45:58.225Z,102423.45
2019-03-23T20:48:25.837Z,102415.23
2019-03-23T20:50:53.578Z,102418.95
2019-03-23T20:53:20.962Z,102425.16
2019-03-23T20:55:48.154Z,102426.36
2019-03-23T20:58:16.035Z,102426.70
2019-03-23T21:00:43.272Z,102428.31
2019-03-23T21:03:10.810Z,102430.84
2019-03-23T21:05:38.106Z,102428.52
2019-03-23T21:08:05.395Z,102428.28
2019-03-23T21:10:32.714Z,102426.61
2019-03-23T21:13:00.224Z,102430.32
2019-03-23T21:15:27.512Z,102425.75
2019-03-23T21:17:55.166Z,102421.91
2019-03-23T21:20:22.824Z,102427.38
2019-03-23T21:22:50.462Z,102421.80
2019-03-23T21:25:17.750Z,102418.09
2019-03-23T21:27:45.103Z,102425.06
2019-03-23T21:30:13.349Z,102426.89
2019-03-23T21:32:40.637Z,102424.97
2019-03-23T21:35:08.077Z,102415.89
2019-03-23T21:37:35.659Z,102411.32
2019-03-23T21:40:03.228Z,102418.97
2019-03-23T21:42:30.450Z,102411.32
2019-03-23T21:44:57.762Z,102410.59
2019-03-23T21:47:25.102Z,102410.39
2019-03-23T21:49:52.398Z,102402.06
2019-03-23T21:52:19.610Z,102406.91
2019-03-23T21:54:46.910Z,102404.44
2019-03-23T21:57:14.145Z,102398.23
2019-03-23T21:59:41.370Z,102403.19
2019-03-23T22:02:08.889Z,102396.63
2019-03-23T22:04:36.230Z,102388.61
2019-03-23T22:07:03.791Z,102382.39
2019-03-23T22:09:31.172Z,102380.47
2019-03-23T22:11:58.629Z,102386.30
2019-03-23T22:14:25.930Z,102383.63
2019-03-23T22:16:53.421Z,102388.95
2019-03-23T22:19:20.605Z,102388.91
2019-03-23T22:21:47.815Z,102385.95
2019-03-23T22:24:15.058Z,102385.42
2019-03-23T22:26:42.282Z,102391.88
2019-03-23T22:29:09.486Z,102387.94
2019-03-23T22:31:36.754Z,102387.16
2019-03-23T22:34:04.082Z,102389.75
2019-03-23T22:36:31.289Z,102387.94
2019-03-23T22:38:58.591Z,102390.30
2019-03-23T22:41:26.925Z,102386.46
2019-03-23T22:43:54.235Z,102387.31
2019-03-23T22:46:21.470Z,102383.30
2019-03-23T22:48:48.690Z,102386.17
2019-03-23T22:51:15.921Z,102384.39
2019-03-23T22:53:43.151Z,102381.53
2019-03-23T22:56:10.385Z,102386.85
2019-03-23T22:58:37.681Z,102380.41
2019-03-23T23:01:05.198Z,102382.91
2019-03-23T23:03:32.534Z,102380.02
2019-03-23T23:05:59.783Z,102375.19
2019-03-23T23:08:27.018Z,102380.90
2019-03-23T23:10:54.546Z,102377.16
2019-03-23T23:13:22.207Z,102373.27
2019-03-23T23:15:49.422Z,102372.31
2019-03-23T23:18:17.010Z,102367.88
2019-03-23T23:20:44.567Z,102361.86
2019-03-23T23:23:11.960Z,102363.81
2019-03-23T23:25:39.366Z,102374.28
2019-03-23T23:28:06.707Z,102370.98
2019-03-23T23:30:34.463Z,102365.08
2019-03-23T23:33:01.664Z,102365.63
2019-03-23T23:35:29.145Z,102366.59
2019-03-23T23:37:57.537Z,102362.07
2019-03-23T23:40:24.998Z,102361.07
2019-03-23T23:42:52.271Z,102355.36
2019-03-23T23:45:20.074Z,102361.93
2019-03-23T23:47:47.451Z,102370.48
2019-03-23T23:50:14.929Z,102367.12
2019-03-23T23:52:42.341Z,102372.73
2019-03-23T23:55:09.831Z,102367.77
2019-03-23T23:57:37.251Z,102367.97
